sensor_id;sensor_type;location;lat;lon;timestamp;P1;durP1;ratioP1;P2;durP2;ratioP2
29210;SDS011;16250;49.932;10.980;2022-08-19T00:01:53;48.75;;;36.88;;
29210;SDS011;16250;49.932;10.980;2022-08-19T00:04:21;43.08;;;35.42;;
29210;SDS011;16250;49.932;10.980;2022-08-19T00:06:49;45.97;;;36.92;;
29210;SDS011;16250;49.932;10.980;2022-08-19T00:09:16;45.25;;;35.67;;
29210;SDS011;16250;49.932;10.980;2022-08-19T00:11:44;40.50;;;33.97;;
29210;SDS011;16250;49.932;10.980;2022-08-19T00:14:11;43.33;;;33.15;;
29210;SDS011;16250;49.932;10.980;2022-08-19T00:16:39;40.47;;;34.90;;
29210;SDS011;16250;49.932;10.980;2022-08-19T00:19:06;41.85;;;35.67;;
29210;SDS011;16250;49.932;10.980;2022-08-19T00:21:32;45.63;;;37.50;;
29210;SDS011;16250;49.932;10.980;2022-08-19T00:24:03;46.85;;;37.53;;
29210;SDS011;16250;49.932;10.980;2022-08-19T00:26:29;44.15;;;36.30;;
29210;SDS011;16250;49.932;10.980;2022-08-19T00:28:55;39.15;;;33.90;;
29210;SDS011;16250;49.932;10.980;2022-08-19T00:31:21;38.95;;;33.13;;
29210;SDS011;16250;49.932;10.980;2022-08-19T00:33:47;38.22;;;33.83;;
29210;SDS011;16250;49.932;10.980;2022-08-19T00:36:15;42.80;;;36.00;;
29210;SDS011;16250;49.932;10.980;2022-08-19T00:38:41;37.97;;;32.55;;
29210;SDS011;16250;49.932;10.980;2022-08-19T00:41:08;39.63;;;33.90;;
29210;SDS011;16250;49.932;10.980;2022-08-19T00:43:38;41.33;;;33.67;;
29210;SDS011;16250;49.932;10.980;2022-08-19T00:46:04;39.50;;;32.83;;
29210;SDS011;16250;49.932;10.980;2022-08-19T00:48:30;38.70;;;33.67;;
29210;SDS011;16250;49.932;10.980;2022-08-19T00:50:56;45.67;;;36.38;;
29210;SDS011;16250;49.932;10.980;2022-08-19T00:53:24;41.30;;;36.28;;
29210;SDS011;16250;49.932;10.980;2022-08-19T00:55:52;45.28;;;37.33;;
29210;SDS011;16250;49.932;10.980;2022-08-19T00:58:22;50.58;;;40.90;;
29210;SDS011;16250;49.932;10.980;2022-08-19T01:00:53;48.33;;;38.40;;
29210;SDS011;16250;49.932;10.980;2022-08-19T01:03:20;45.80;;;36.88;;
29210;SDS011;16250;49.932;10.980;2022-08-19T01:05:49;43.70;;;36.42;;
29210;SDS011;16250;49.932;10.980;2022-08-19T01:08:17;53.70;;;40.88;;
29210;SDS011;16250;49.932;10.980;2022-08-19T01:10:48;52.50;;;39.38;;
29210;SDS011;16250;49.932;10.980;2022-08-19T01:13:20;48.30;;;38.60;;
29210;SDS011;16250;49.932;10.980;2022-08-19T01:15:50;50.38;;;39.28;;
29210;SDS011;16250;49.932;10.980;2022-08-19T01:18:19;51.92;;;39.95;;
29210;SDS011;16250;49.932;10.980;2022-08-19T01:20:46;49.42;;;38.60;;
29210;SDS011;16250;49.932;10.980;2022-08-19T01:23:13;48.92;;;38.10;;
29210;SDS011;16250;49.932;10.980;2022-08-19T01:25:46;46.75;;;37.80;;
29210;SDS011;16250;49.932;10.980;2022-08-19T01:28:19;54.63;;;40.13;;
29210;SDS011;16250;49.932;10.980;2022-08-19T01:30:51;59.35;;;42.97;;
29210;SDS011;16250;49.932;10.980;2022-08-19T01:33:17;66.32;;;44.50;;
29210;SDS011;16250;49.932;10.980;2022-08-19T01:35:44;53.80;;;40.60;;
29210;SDS011;16250;49.932;10.980;2022-08-19T01:38:10;51.67;;;39.95;;
29210;SDS011;16250;49.932;10.980;2022-08-19T01:43:11;76.27;;;46.17;;
29210;SDS011;16250;49.932;10.980;2022-08-19T01:45:36;69.93;;;45.17;;
29210;SDS011;16250;49.932;10.980;2022-08-19T01:48:05;74.40;;;46.28;;
29210;SDS011;16250;49.932;10.980;2022-08-19T01:50:32;73.95;;;47.63;;
29210;SDS011;16250;49.932;10.980;2022-08-19T01:52:59;67.47;;;45.53;;
29210;SDS011;16250;49.932;10.980;2022-08-19T01:55:26;74.53;;;47.08;;
29210;SDS011;16250;49.932;10.980;2022-08-19T01:57:53;68.95;;;45.70;;
29210;SDS011;16250;49.932;10.980;2022-08-19T02:00:23;74.40;;;46.22;;
29210;SDS011;16250;49.932;10.980;2022-08-19T02:02:51;75.65;;;47.65;;
29210;SDS011;16250;49.932;10.980;2022-08-19T02:05:16;76.60;;;48.70;;
29210;SDS011;16250;49.932;10.980;2022-08-19T02:07:43;66.60;;;42.92;;
29210;SDS011;16250;49.932;10.980;2022-08-19T02:10:11;69.55;;;46.33;;
29210;SDS011;16250;49.932;10.980;2022-08-19T02:12:39;61.35;;;45.78;;
29210;SDS011;16250;49.932;10.980;2022-08-19T02:15:05;59.08;;;43.63;;
29210;SDS011;16250;49.932;10.980;2022-08-19T02:17:32;58.38;;;43.78;;
29210;SDS011;16250;49.932;10.980;2022-08-19T02:19:58;62.97;;;44.38;;
29210;SDS011;16250;49.932;10.980;2022-08-19T02:22:24;55.60;;;42.22;;
29210;SDS011;16250;49.932;10.980;2022-08-19T02:24:51;52.30;;;40.90;;
29210;SDS011;16250;49.932;10.980;2022-08-19T02:27:17;60.58;;;43.45;;
29210;SDS011;16250;49.932;10.980;2022-08-19T02:29:45;67.78;;;47.03;;
29210;SDS011;16250;49.932;10.980;2022-08-19T02:32:12;50.70;;;40.17;;
29210;SDS011;16250;49.932;10.980;2022-08-19T02:34:38;54.40;;;41.55;;
29210;SDS011;16250;49.932;10.980;2022-08-19T02:37:04;44.67;;;38.50;;
29210;SDS011;16250;49.932;10.980;2022-08-19T02:39:30;51.00;;;38.83;;
29210;SDS011;16250;49.932;10.980;2022-08-19T02:41:55;50.42;;;38.67;;
29210;SDS011;16250;49.932;10.980;2022-08-19T02:44:21;60.20;;;42.08;;
29210;SDS011;16250;49.932;10.980;2022-08-19T02:46:47;50.25;;;39.25;;
29210;SDS011;16250;49.932;10.980;2022-08-19T02:49:15;50.60;;;39.03;;
29210;SDS011;16250;49.932;10.980;2022-08-19T02:51:42;51.50;;;38.65;;
29210;SDS011;16250;49.932;10.980;2022-08-19T02:54:09;60.13;;;43.13;;
29210;SDS011;16250;49.932;10.980;2022-08-19T02:56:36;53.88;;;41.08;;
29210;SDS011;16250;49.932;10.980;2022-08-19T02:59:03;48.53;;;39.22;;
29210;SDS011;16250;49.932;10.980;2022-08-19T03:01:36;53.83;;;39.92;;
29210;SDS011;16250;49.932;10.980;2022-08-19T03:04:05;60.28;;;42.58;;
29210;SDS011;16250;49.932;10.980;2022-08-19T03:06:34;61.83;;;43.63;;
29210;SDS011;16250;49.932;10.980;2022-08-19T03:09:02;51.15;;;40.55;;
29210;SDS011;16250;49.932;10.980;2022-08-19T03:11:29;53.72;;;40.22;;
29210;SDS011;16250;49.932;10.980;2022-08-19T03:13:56;58.28;;;43.05;;
29210;SDS011;16250;49.932;10.980;2022-08-19T03:16:23;72.13;;;45.58;;
29210;SDS011;16250;49.932;10.980;2022-08-19T03:18:50;52.15;;;40.63;;
29210;SDS011;16250;49.932;10.980;2022-08-19T03:21:17;50.97;;;40.33;;
29210;SDS011;16250;49.932;10.980;2022-08-19T03:23:45;56.03;;;41.67;;
29210;SDS011;16250;49.932;10.980;2022-08-19T03:26:10;48.88;;;38.70;;
29210;SDS011;16250;49.932;10.980;2022-08-19T03:28:36;60.47;;;43.03;;
29210;SDS011;16250;49.932;10.980;2022-08-19T03:31:06;50.80;;;40.53;;
29210;SDS011;16250;49.932;10.980;2022-08-19T03:33:36;51.22;;;40.72;;
29210;SDS011;16250;49.932;10.980;2022-08-19T03:36:10;53.90;;;39.38;;
29210;SDS011;16250;49.932;10.980;2022-08-19T03:38:42;52.42;;;41.22;;
29210;SDS011;16250;49.932;10.980;2022-08-19T03:41:11;68.65;;;45.00;;
29210;SDS011;16250;49.932;10.980;2022-08-19T03:43:41;59.67;;;43.35;;
29210;SDS011;16250;49.932;10.980;2022-08-19T03:46:09;56.92;;;40.42;;
29210;SDS011;16250;49.932;10.980;2022-08-19T03:48:36;65.28;;;44.80;;
29210;SDS011;16250;49.932;10.980;2022-08-19T03:51:05;66.53;;;45.35;;
29210;SDS011;16250;49.932;10.980;2022-08-19T03:53:32;73.00;;;47.80;;
29210;SDS011;16250;49.932;10.980;2022-08-19T03:55:58;66.60;;;46.53;;
29210;SDS011;16250;49.932;10.980;2022-08-19T03:58:28;68.25;;;47.53;;
29210;SDS011;16250;49.932;10.980;2022-08-19T04:00:57;62.92;;;45.75;;
29210;SDS011;16250;49.932;10.980;2022-08-19T04:03:24;57.58;;;43.08;;
29210;SDS011;16250;49.932;10.980;2022-08-19T04:05:51;64.53;;;46.30;;
29210;SDS011;16250;49.932;10.980;2022-08-19T04:08:18;58.75;;;42.55;;
29210;SDS011;16250;49.932;10.980;2022-08-19T04:10:47;51.35;;;40.33;;
29210;SDS011;16250;49.932;10.980;2022-08-19T04:13:17;50.72;;;40.53;;
29210;SDS011;16250;49.932;10.980;2022-08-19T04:15:43;59.25;;;44.13;;
29210;SDS011;16250;49.932;10.980;2022-08-19T04:18:11;75.97;;;48.00;;
29210;SDS011;16250;49.932;10.980;2022-08-19T04:20:40;45.13;;;36.90;;
29210;SDS011;16250;49.932;10.980;2022-08-19T04:23:11;55.28;;;40.63;;
29210;SDS011;16250;49.932;10.980;2022-08-19T04:25:40;57.90;;;40.50;;
29210;SDS011;16250;49.932;10.980;2022-08-19T04:28:08;50.92;;;39.63;;
29210;SDS011;16250;49.932;10.980;2022-08-19T04:30:42;50.28;;;38.05;;
29210;SDS011;16250;49.932;10.980;2022-08-19T04:33:10;48.38;;;38.70;;
29210;SDS011;16250;49.932;10.980;2022-08-19T04:35:39;47.78;;;39.05;;
29210;SDS011;16250;49.932;10.980;2022-08-19T04:38:07;41.75;;;36.33;;
29210;SDS011;16250;49.932;10.980;2022-08-19T04:40:33;51.85;;;39.92;;
29210;SDS011;16250;49.932;10.980;2022-08-19T04:43:22;57.47;;;42.72;;
29210;SDS011;16250;49.932;10.980;2022-08-19T04:45:48;56.60;;;43.45;;
29210;SDS011;16250;49.932;10.980;2022-08-19T04:48:13;58.05;;;43.85;;
29210;SDS011;16250;49.932;10.980;2022-08-19T04:50:40;62.28;;;44.45;;
29210;SDS011;16250;49.932;10.980;2022-08-19T04:53:06;50.03;;;40.08;;
29210;SDS011;16250;49.932;10.980;2022-08-19T04:55:33;52.13;;;41.38;;
29210;SDS011;16250;49.932;10.980;2022-08-19T04:58:00;58.22;;;42.47;;
29210;SDS011;16250;49.932;10.980;2022-08-19T05:00:27;62.78;;;45.00;;
29210;SDS011;16250;49.932;10.980;2022-08-19T05:02:52;58.85;;;42.92;;
29210;SDS011;16250;49.932;10.980;2022-08-19T05:05:18;58.15;;;42.70;;
29210;SDS011;16250;49.932;10.980;2022-08-19T05:07:44;55.30;;;40.85;;
29210;SDS011;16250;49.932;10.980;2022-08-19T05:10:10;57.28;;;43.38;;
29210;SDS011;16250;49.932;10.980;2022-08-19T05:12:36;47.03;;;37.63;;
29210;SDS011;16250;49.932;10.980;2022-08-19T05:15:03;53.53;;;40.88;;
29210;SDS011;16250;49.932;10.980;2022-08-19T05:17:30;51.22;;;39.67;;
29210;SDS011;16250;49.932;10.980;2022-08-19T05:19:56;53.47;;;40.45;;
29210;SDS011;16250;49.932;10.980;2022-08-19T05:22:41;51.80;;;39.78;;
29210;SDS011;16250;49.932;10.980;2022-08-19T05:25:08;54.38;;;41.05;;
29210;SDS011;16250;49.932;10.980;2022-08-19T05:27:37;53.83;;;40.83;;
29210;SDS011;16250;49.932;10.980;2022-08-19T05:30:03;53.17;;;40.13;;
29210;SDS011;16250;49.932;10.980;2022-08-19T05:32:29;51.17;;;39.75;;
29210;SDS011;16250;49.932;10.980;2022-08-19T05:34:55;59.90;;;42.88;;
29210;SDS011;16250;49.932;10.980;2022-08-19T05:37:20;58.83;;;43.05;;
29210;SDS011;16250;49.932;10.980;2022-08-19T05:39:47;53.38;;;40.50;;
29210;SDS011;16250;49.932;10.980;2022-08-19T05:42:14;51.70;;;39.60;;
29210;SDS011;16250;49.932;10.980;2022-08-19T05:44:41;53.97;;;40.30;;
29210;SDS011;16250;49.932;10.980;2022-08-19T05:47:09;50.42;;;38.80;;
29210;SDS011;16250;49.932;10.980;2022-08-19T05:49:37;50.58;;;38.22;;
29210;SDS011;16250;49.932;10.980;2022-08-19T05:52:04;48.13;;;38.22;;
29210;SDS011;16250;49.932;10.980;2022-08-19T05:54:31;52.15;;;40.40;;
29210;SDS011;16250;49.932;10.980;2022-08-19T05:56:57;53.22;;;40.03;;
29210;SDS011;16250;49.932;10.980;2022-08-19T05:59:23;54.40;;;39.53;;
29210;SDS011;16250;49.932;10.980;2022-08-19T06:01:50;51.42;;;39.88;;
29210;SDS011;16250;49.932;10.980;2022-08-19T06:04:18;50.10;;;38.10;;
29210;SDS011;16250;49.932;10.980;2022-08-19T06:06:45;56.08;;;40.53;;
29210;SDS011;16250;49.932;10.980;2022-08-19T06:09:11;54.35;;;41.60;;
29210;SDS011;16250;49.932;10.980;2022-08-19T06:14:04;61.13;;;42.35;;
29210;SDS011;16250;49.932;10.980;2022-08-19T06:16:36;56.85;;;42.42;;
29210;SDS011;16250;49.932;10.980;2022-08-19T06:19:04;64.45;;;44.38;;
29210;SDS011;16250;49.932;10.980;2022-08-19T06:21:32;61.00;;;43.80;;
29210;SDS011;16250;49.932;10.980;2022-08-19T06:24:00;62.40;;;43.53;;
29210;SDS011;16250;49.932;10.980;2022-08-19T06:26:25;59.58;;;43.50;;
29210;SDS011;16250;49.932;10.980;2022-08-19T06:28:52;63.25;;;44.30;;
29210;SDS011;16250;49.932;10.980;2022-08-19T06:31:19;51.92;;;39.60;;
29210;SDS011;16250;49.932;10.980;2022-08-19T06:33:48;62.35;;;41.88;;
29210;SDS011;16250;49.932;10.980;2022-08-19T06:36:17;61.80;;;43.08;;
29210;SDS011;16250;49.932;10.980;2022-08-19T06:38:55;62.90;;;43.92;;
29210;SDS011;16250;49.932;10.980;2022-08-19T06:41:22;62.97;;;44.08;;
29210;SDS011;16250;49.932;10.980;2022-08-19T06:43:51;57.35;;;43.00;;
29210;SDS011;16250;49.932;10.980;2022-08-19T06:46:17;55.53;;;41.38;;
29210;SDS011;16250;49.932;10.980;2022-08-19T06:48:45;64.88;;;44.35;;
29210;SDS011;16250;49.932;10.980;2022-08-19T06:51:12;64.65;;;45.83;;
29210;SDS011;16250;49.932;10.980;2022-08-19T06:53:43;77.25;;;49.13;;
29210;SDS011;16250;49.932;10.980;2022-08-19T06:56:13;83.82;;;48.78;;
29210;SDS011;16250;49.932;10.980;2022-08-19T06:58:43;74.18;;;48.38;;
29210;SDS011;16250;49.932;10.980;2022-08-19T07:01:12;82.15;;;50.33;;
29210;SDS011;16250;49.932;10.980;2022-08-19T07:03:38;54.60;;;41.70;;
29210;SDS011;16250;49.932;10.980;2022-08-19T07:06:09;61.03;;;42.88;;
29210;SDS011;16250;49.932;10.980;2022-08-19T07:08:37;54.67;;;40.92;;
29210;SDS011;16250;49.932;10.980;2022-08-19T07:11:06;59.15;;;42.90;;
29210;SDS011;16250;49.932;10.980;2022-08-19T07:13:34;55.25;;;41.05;;
29210;SDS011;16250;49.932;10.980;2022-08-19T07:16:07;57.60;;;42.92;;
29210;SDS011;16250;49.932;10.980;2022-08-19T07:18:36;50.60;;;39.83;;
29210;SDS011;16250;49.932;10.980;2022-08-19T07:21:13;54.75;;;42.45;;
29210;SDS011;16250;49.932;10.980;2022-08-19T07:23:48;59.08;;;42.40;;
29210;SDS011;16250;49.932;10.980;2022-08-19T07:26:27;53.40;;;41.92;;
29210;SDS011;16250;49.932;10.980;2022-08-19T07:28:57;50.85;;;38.75;;
29210;SDS011;16250;49.932;10.980;2022-08-19T07:31:25;48.85;;;37.13;;
29210;SDS011;16250;49.932;10.980;2022-08-19T07:33:55;58.10;;;42.13;;
29210;SDS011;16250;49.932;10.980;2022-08-19T07:36:23;57.00;;;42.15;;
29210;SDS011;16250;49.932;10.980;2022-08-19T07:38:53;54.80;;;41.50;;
29210;SDS011;16250;49.932;10.980;2022-08-19T07:41:20;47.45;;;37.53;;
29210;SDS011;16250;49.932;10.980;2022-08-19T07:43:49;53.88;;;40.40;;
29210;SDS011;16250;49.932;10.980;2022-08-19T07:46:16;61.15;;;43.42;;
29210;SDS011;16250;49.932;10.980;2022-08-19T07:48:45;50.83;;;39.30;;
29210;SDS011;16250;49.932;10.980;2022-08-19T07:51:13;54.95;;;40.00;;
29210;SDS011;16250;49.932;10.980;2022-08-19T07:53:40;55.42;;;41.25;;
29210;SDS011;16250;49.932;10.980;2022-08-19T07:56:06;51.97;;;40.92;;
29210;SDS011;16250;49.932;10.980;2022-08-19T07:58:33;47.90;;;38.33;;
29210;SDS011;16250;49.932;10.980;2022-08-19T08:01:02;50.63;;;38.53;;
29210;SDS011;16250;49.932;10.980;2022-08-19T08:03:33;51.67;;;38.83;;
29210;SDS011;16250;49.932;10.980;2022-08-19T08:06:19;50.70;;;39.33;;
29210;SDS011;16250;49.932;10.980;2022-08-19T08:09:03;48.40;;;37.47;;
29210;SDS011;16250;49.932;10.980;2022-08-19T08:11:43;46.83;;;35.58;;
29210;SDS011;16250;49.932;10.980;2022-08-19T08:14:19;48.60;;;37.10;;
29210;SDS011;16250;49.932;10.980;2022-08-19T08:16:53;40.55;;;33.40;;
29210;SDS011;16250;49.932;10.980;2022-08-19T08:19:19;48.13;;;35.83;;
29210;SDS011;16250;49.932;10.980;2022-08-19T08:21:48;46.65;;;35.38;;
29210;SDS011;16250;49.932;10.980;2022-08-19T08:24:14;45.15;;;34.38;;
29210;SDS011;16250;49.932;10.980;2022-08-19T08:26:41;43.85;;;33.17;;
29210;SDS011;16250;49.932;10.980;2022-08-19T08:29:08;40.88;;;31.65;;
29210;SDS011;16250;49.932;10.980;2022-08-19T08:31:39;37.22;;;30.70;;
29210;SDS011;16250;49.932;10.980;2022-08-19T08:34:05;36.35;;;30.02;;
29210;SDS011;16250;49.932;10.980;2022-08-19T08:36:31;37.85;;;30.30;;
29210;SDS011;16250;49.932;10.980;2022-08-19T08:39:00;33.38;;;28.08;;
29210;SDS011;16250;49.932;10.980;2022-08-19T08:47:22;35.40;;;28.98;;
29210;SDS011;16250;49.932;10.980;2022-08-19T08:49:51;37.50;;;27.52;;
29210;SDS011;16250;49.932;10.980;2022-08-19T08:52:25;37.28;;;28.52;;
29210;SDS011;16250;49.932;10.980;2022-08-19T08:55:21;34.22;;;27.98;;
29210;SDS011;16250;49.932;10.980;2022-08-19T08:57:55;36.65;;;28.65;;
29210;SDS011;16250;49.932;10.980;2022-08-19T09:00:27;32.50;;;28.17;;
29210;SDS011;16250;49.932;10.980;2022-08-19T09:02:59;31.42;;;25.88;;
29210;SDS011;16250;49.932;10.980;2022-08-19T09:08:39;30.83;;;26.02;;
29210;SDS011;16250;49.932;10.980;2022-08-19T09:11:10;29.27;;;25.33;;
29210;SDS011;16250;49.932;10.980;2022-08-19T09:13:54;33.55;;;27.45;;
29210;SDS011;16250;49.932;10.980;2022-08-19T09:16:25;29.20;;;24.48;;
29210;SDS011;16250;49.932;10.980;2022-08-19T09:18:54;29.67;;;23.45;;
29210;SDS011;16250;49.932;10.980;2022-08-19T09:21:23;29.48;;;23.60;;
29210;SDS011;16250;49.932;10.980;2022-08-19T09:23:50;28.50;;;23.77;;
29210;SDS011;16250;49.932;10.980;2022-08-19T09:26:17;26.42;;;23.50;;
29210;SDS011;16250;49.932;10.980;2022-08-19T09:28:45;27.48;;;22.70;;
29210;SDS011;16250;49.932;10.980;2022-08-19T09:31:13;26.63;;;22.92;;
29210;SDS011;16250;49.932;10.980;2022-08-19T09:33:43;26.10;;;22.08;;
29210;SDS011;16250;49.932;10.980;2022-08-19T09:36:10;25.20;;;22.15;;
29210;SDS011;16250;49.932;10.980;2022-08-19T09:38:38;25.83;;;22.95;;
29210;SDS011;16250;49.932;10.980;2022-08-19T09:41:06;28.10;;;23.35;;
29210;SDS011;16250;49.932;10.980;2022-08-19T09:43:33;26.33;;;23.23;;
29210;SDS011;16250;49.932;10.980;2022-08-19T09:46:01;25.10;;;21.65;;
29210;SDS011;16250;49.932;10.980;2022-08-19T09:48:30;24.90;;;22.30;;
29210;SDS011;16250;49.932;10.980;2022-08-19T09:51:02;28.05;;;23.55;;
29210;SDS011;16250;49.932;10.980;2022-08-19T09:53:29;26.75;;;22.10;;
29210;SDS011;16250;49.932;10.980;2022-08-19T09:55:55;23.90;;;21.13;;
29210;SDS011;16250;49.932;10.980;2022-08-19T09:58:20;25.08;;;22.38;;
29210;SDS011;16250;49.932;10.980;2022-08-19T10:00:47;26.33;;;23.60;;
29210;SDS011;16250;49.932;10.980;2022-08-19T10:03:13;24.15;;;21.63;;
29210;SDS011;16250;49.932;10.980;2022-08-19T10:05:38;29.42;;;23.00;;
29210;SDS011;16250;49.932;10.980;2022-08-19T10:08:13;25.17;;;22.48;;
29210;SDS011;16250;49.932;10.980;2022-08-19T10:10:40;25.80;;;22.17;;
29210;SDS011;16250;49.932;10.980;2022-08-19T10:13:09;25.85;;;23.13;;
29210;SDS011;16250;49.932;10.980;2022-08-19T10:15:35;25.27;;;22.00;;
29210;SDS011;16250;49.932;10.980;2022-08-19T10:18:04;25.77;;;22.92;;
29210;SDS011;16250;49.932;10.980;2022-08-19T10:20:31;29.27;;;23.85;;
29210;SDS011;16250;49.932;10.980;2022-08-19T10:22:57;29.45;;;23.70;;
29210;SDS011;16250;49.932;10.980;2022-08-19T10:25:24;30.65;;;24.80;;
29210;SDS011;16250;49.932;10.980;2022-08-19T10:27:51;28.02;;;24.35;;
29210;SDS011;16250;49.932;10.980;2022-08-19T10:30:17;27.00;;;24.10;;
29210;SDS011;16250;49.932;10.980;2022-08-19T10:32:43;28.73;;;24.77;;
29210;SDS011;16250;49.932;10.980;2022-08-19T10:35:10;29.98;;;25.73;;
29210;SDS011;16250;49.932;10.980;2022-08-19T10:37:37;35.03;;;25.70;;
29210;SDS011;16250;49.932;10.980;2022-08-19T10:40:05;28.90;;;25.77;;
29210;SDS011;16250;49.932;10.980;2022-08-19T10:42:32;34.03;;;26.83;;
29210;SDS011;16250;49.932;10.980;2022-08-19T10:44:59;29.77;;;26.10;;
29210;SDS011;16250;49.932;10.980;2022-08-19T10:47:25;37.05;;;28.63;;
29210;SDS011;16250;49.932;10.980;2022-08-19T10:49:51;34.40;;;28.30;;
29210;SDS011;16250;49.932;10.980;2022-08-19T10:52:37;35.28;;;29.08;;
29210;SDS011;16250;49.932;10.980;2022-08-19T10:55:07;34.60;;;28.10;;
29210;SDS011;16250;49.932;10.980;2022-08-19T10:57:52;33.92;;;27.92;;
29210;SDS011;16250;49.932;10.980;2022-08-19T11:00:18;28.77;;;25.70;;
29210;SDS011;16250;49.932;10.980;2022-08-19T11:02:45;32.60;;;27.20;;
29210;SDS011;16250;49.932;10.980;2022-08-19T11:05:11;28.05;;;25.08;;
29210;SDS011;16250;49.932;10.980;2022-08-19T11:07:38;30.25;;;27.02;;
29210;SDS011;16250;49.932;10.980;2022-08-19T11:10:05;32.70;;;26.00;;
29210;SDS011;16250;49.932;10.980;2022-08-19T11:12:31;32.85;;;25.27;;
29210;SDS011;16250;49.932;10.980;2022-08-19T11:14:58;31.55;;;23.35;;
29210;SDS011;16250;49.932;10.980;2022-08-19T11:17:23;29.33;;;23.73;;
29210;SDS011;16250;49.932;10.980;2022-08-19T11:19:49;26.73;;;23.90;;
29210;SDS011;16250;49.932;10.980;2022-08-19T11:22:15;25.58;;;22.42;;
29210;SDS011;16250;49.932;10.980;2022-08-19T11:24:42;24.83;;;22.08;;
29210;SDS011;16250;49.932;10.980;2022-08-19T11:27:08;24.52;;;21.73;;
29210;SDS011;16250;49.932;10.980;2022-08-19T11:29:35;28.42;;;22.98;;
29210;SDS011;16250;49.932;10.980;2022-08-19T11:32:07;26.40;;;23.63;;
29210;SDS011;16250;49.932;10.980;2022-08-19T11:34:34;26.23;;;22.75;;
29210;SDS011;16250;49.932;10.980;2022-08-19T11:37:00;26.33;;;23.42;;
29210;SDS011;16250;49.932;10.980;2022-08-19T11:39:28;25.33;;;22.17;;
29210;SDS011;16250;49.932;10.980;2022-08-19T11:41:56;25.90;;;23.08;;
29210;SDS011;16250;49.932;10.980;2022-08-19T11:44:23;28.45;;;23.92;;
29210;SDS011;16250;49.932;10.980;2022-08-19T11:46:49;27.75;;;24.75;;
29210;SDS011;16250;49.932;10.980;2022-08-19T11:49:18;28.60;;;24.42;;
29210;SDS011;16250;49.932;10.980;2022-08-19T11:51:45;31.10;;;25.02;;
29210;SDS011;16250;49.932;10.980;2022-08-19T11:54:11;28.35;;;23.80;;
29210;SDS011;16250;49.932;10.980;2022-08-19T11:56:39;28.65;;;24.15;;
29210;SDS011;16250;49.932;10.980;2022-08-19T11:59:05;26.30;;;23.50;;
29210;SDS011;16250;49.932;10.980;2022-08-19T12:01:32;25.42;;;22.80;;
29210;SDS011;16250;49.932;10.980;2022-08-19T12:03:58;27.27;;;22.58;;
29210;SDS011;16250;49.932;10.980;2022-08-19T12:06:29;25.42;;;22.80;;
29210;SDS011;16250;49.932;10.980;2022-08-19T12:08:57;26.45;;;23.65;;
29210;SDS011;16250;49.932;10.980;2022-08-19T12:11:24;29.92;;;26.73;;
29210;SDS011;16250;49.932;10.980;2022-08-19T12:13:51;32.25;;;27.40;;
29210;SDS011;16250;49.932;10.980;2022-08-19T12:16:21;32.55;;;27.70;;
29210;SDS011;16250;49.932;10.980;2022-08-19T12:18:52;31.15;;;27.35;;
29210;SDS011;16250;49.932;10.980;2022-08-19T12:21:20;33.80;;;28.58;;
29210;SDS011;16250;49.932;10.980;2022-08-19T12:23:50;28.02;;;25.02;;
29210;SDS011;16250;49.932;10.980;2022-08-19T12:26:16;25.00;;;21.13;;
29210;SDS011;16250;49.932;10.980;2022-08-19T12:28:43;23.45;;;21.05;;
29210;SDS011;16250;49.932;10.980;2022-08-19T12:31:09;21.48;;;18.83;;
29210;SDS011;16250;49.932;10.980;2022-08-19T12:33:37;22.67;;;20.38;;
29210;SDS011;16250;49.932;10.980;2022-08-19T12:36:04;22.17;;;19.75;;
29210;SDS011;16250;49.932;10.980;2022-08-19T12:38:32;22.50;;;19.92;;
29210;SDS011;16250;49.932;10.980;2022-08-19T12:40:59;24.58;;;20.88;;
29210;SDS011;16250;49.932;10.980;2022-08-19T12:43:25;21.90;;;19.58;;
29210;SDS011;16250;49.932;10.980;2022-08-19T12:45:51;20.33;;;18.15;;
29210;SDS011;16250;49.932;10.980;2022-08-19T12:48:17;18.55;;;16.67;;
29210;SDS011;16250;49.932;10.980;2022-08-19T12:50:43;19.55;;;16.83;;
29210;SDS011;16250;49.932;10.980;2022-08-19T12:53:10;24.17;;;18.15;;
29210;SDS011;16250;49.932;10.980;2022-08-19T12:55:36;20.85;;;17.63;;
29210;SDS011;16250;49.932;10.980;2022-08-19T12:58:02;21.77;;;18.42;;
29210;SDS011;16250;49.932;10.980;2022-08-19T13:00:28;23.38;;;18.50;;
29210;SDS011;16250;49.932;10.980;2022-08-19T13:02:55;22.85;;;19.20;;
29210;SDS011;16250;49.932;10.980;2022-08-19T13:05:21;22.08;;;19.60;;
29210;SDS011;16250;49.932;10.980;2022-08-19T13:07:49;22.00;;;19.70;;
29210;SDS011;16250;49.932;10.980;2022-08-19T13:10:17;13.93;;;12.20;;
29210;SDS011;16250;49.932;10.980;2022-08-19T13:12:46;11.38;;;10.18;;
29210;SDS011;16250;49.932;10.980;2022-08-19T13:15:13;12.45;;;10.77;;
29210;SDS011;16250;49.932;10.980;2022-08-19T13:17:40;12.05;;;10.75;;
29210;SDS011;16250;49.932;10.980;2022-08-19T13:20:07;16.17;;;12.70;;
29210;SDS011;16250;49.932;10.980;2022-08-19T13:22:35;18.42;;;15.93;;
29210;SDS011;16250;49.932;10.980;2022-08-19T13:25:02;20.05;;;17.60;;
29210;SDS011;16250;49.932;10.980;2022-08-19T13:27:28;19.45;;;17.38;;
29210;SDS011;16250;49.932;10.980;2022-08-19T13:29:54;22.75;;;20.40;;
29210;SDS011;16250;49.932;10.980;2022-08-19T13:32:38;22.00;;;19.40;;
29210;SDS011;16250;49.932;10.980;2022-08-19T13:35:22;22.98;;;20.58;;
29210;SDS011;16250;49.932;10.980;2022-08-19T13:37:48;22.98;;;20.52;;
29210;SDS011;16250;49.932;10.980;2022-08-19T13:40:15;27.83;;;24.25;;
29210;SDS011;16250;49.932;10.980;2022-08-19T13:42:46;27.77;;;24.77;;
29210;SDS011;16250;49.932;10.980;2022-08-19T13:45:14;30.40;;;25.92;;
29210;SDS011;16250;49.932;10.980;2022-08-19T13:47:41;31.48;;;25.10;;
29210;SDS011;16250;49.932;10.980;2022-08-19T13:50:10;30.60;;;25.73;;
29210;SDS011;16250;49.932;10.980;2022-08-19T13:52:41;34.88;;;28.33;;
29210;SDS011;16250;49.932;10.980;2022-08-19T13:55:07;28.85;;;25.73;;
29210;SDS011;16250;49.932;10.980;2022-08-19T13:57:34;30.45;;;26.38;;
29210;SDS011;16250;49.932;10.980;2022-08-19T14:00:00;36.95;;;28.08;;
29210;SDS011;16250;49.932;10.980;2022-08-19T14:02:26;27.80;;;24.55;;
29210;SDS011;16250;49.932;10.980;2022-08-19T14:04:52;26.90;;;23.50;;
29210;SDS011;16250;49.932;10.980;2022-08-19T14:07:17;26.83;;;23.92;;
29210;SDS011;16250;49.932;10.980;2022-08-19T14:09:43;27.30;;;23.50;;
29210;SDS011;16250;49.932;10.980;2022-08-19T14:12:09;26.83;;;23.80;;
29210;SDS011;16250;49.932;10.980;2022-08-19T14:14:38;28.23;;;25.23;;
29210;SDS011;16250;49.932;10.980;2022-08-19T14:17:07;28.55;;;23.95;;
29210;SDS011;16250;49.932;10.980;2022-08-19T14:19:34;29.85;;;23.60;;
29210;SDS011;16250;49.932;10.980;2022-08-19T14:21:59;23.30;;;20.92;;
29210;SDS011;16250;49.932;10.980;2022-08-19T14:24:25;23.90;;;21.23;;
29210;SDS011;16250;49.932;10.980;2022-08-19T14:26:51;24.70;;;22.05;;
29210;SDS011;16250;49.932;10.980;2022-08-19T14:29:17;26.33;;;23.38;;